sensor_id;sensor_type;location;lat;lon;timestamp;pressure;altitude;pressure_sealevel;temperature;humidity
71770;BME280;59605;52.122;5.420;2022-11-11T00:01:12;102862.47;;;20.77;54.37
71770;BME280;59605;52.122;5.420;2022-11-11T00:03:40;102873.78;;;20.77;53.85
71770;BME280;59605;52.122;5.420;2022-11-11T00:06:12;102861.63;;;20.76;54.16
71770;BME280;59605;52.122;5.420;2022-11-11T00:08:39;102859.88;;;20.77;53.85
71770;BME280;59605;52.122;5.420;2022-11-11T00:11:10;102856.38;;;20.76;54.07
71770;BME280;59605;52.122;5.420;2022-11-11T00:13:38;102853.84;;;20.74;54.25
71770;BME280;59605;52.122;5.420;2022-11-11T00:16:12;102865.16;;;20.75;53.73
71770;BME280;59605;52.122;5.420;2022-11-11T00:18:40;102869.53;;;20.74;53.93
71770;BME280;59605;52.122;5.420;2022-11-11T00:21:25;102879.91;;;20.76;53.71
71770;BME280;59605;52.122;5.420;2022-11-11T00:27:10;102870.47;;;20.73;53.72
71770;BME280;59605;52.122;5.420;2022-11-11T00:29:37;102877.44;;;20.73;53.88
71770;BME280;59605;52.122;5.420;2022-11-11T00:32:05;102867.06;;;20.71;53.85
71770;BME280;59605;52.122;5.420;2022-11-11T00:35:01;102875.75;;;20.72;53.56
71770;BME280;59605;52.122;5.420;2022-11-11T00:37:46;102867.13;;;20.70;53.57
71770;BME280;59605;52.122;5.420;2022-11-11T00:40:16;102867.06;;;20.71;53.53
71770;BME280;59605;52.122;5.420;2022-11-11T00:42:42;102864.44;;;20.71;53.92
71770;BME280;59605;52.122;5.420;2022-11-11T00:45:10;102867.97;;;20.70;53.81
71770;BME280;59605;52.122;5.420;2022-11-11T00:47:36;102867.97;;;20.70;53.93
71770;BME280;59605;52.122;5.420;2022-11-11T00:50:26;102867.22;;;20.68;53.45
71770;BME280;59605;52.122;5.420;2022-11-11T00:53:18;102875.81;;;20.70;53.49
71770;BME280;59605;52.122;5.420;2022-11-11T00:55:52;102869.81;;;20.68;53.68
71770;BME280;59605;52.122;5.420;2022-11-11T00:58:19;102865.44;;;20.69;53.62
71770;BME280;59605;52.122;5.420;2022-11-11T01:00:46;102859.38;;;20.68;53.55
71770;BME280;59605;52.122;5.420;2022-11-11T01:03:12;102855.06;;;20.67;53.88
71770;BME280;59605;52.122;5.420;2022-11-11T01:05:38;102848.09;;;20.68;53.49
71770;BME280;59605;52.122;5.420;2022-11-11T01:08:05;102846.38;;;20.67;53.69
71770;BME280;59605;52.122;5.420;2022-11-11T01:10:31;102848.16;;;20.66;53.51
71770;BME280;59605;52.122;5.420;2022-11-11T01:13:06;102855.09;;;20.66;53.72
71770;BME280;59605;52.122;5.420;2022-11-11T01:15:40;102853.44;;;20.65;53.50
71770;BME280;59605;52.122;5.420;2022-11-11T01:18:08;102857.72;;;20.66;53.44
71770;BME280;59605;52.122;5.420;2022-11-11T01:20:35;102848.22;;;20.65;53.37
71770;BME280;59605;52.122;5.420;2022-11-11T01:23:04;102849.88;;;20.66;53.36
71770;BME280;59605;52.122;5.420;2022-11-11T01:25:34;102857.78;;;20.64;53.47
71770;BME280;59605;52.122;5.420;2022-11-11T01:28:02;102855.19;;;20.64;53.51
71770;BME280;59605;52.122;5.420;2022-11-11T01:30:31;102841.28;;;20.64;53.55
71770;BME280;59605;52.122;5.420;2022-11-11T01:32:58;102843.09;;;20.62;53.76
71770;BME280;59605;52.122;5.420;2022-11-11T01:35:25;102839.56;;;20.63;53.86
71770;BME280;59605;52.122;5.420;2022-11-11T01:37:52;102834.34;;;20.63;53.29
71770;BME280;59605;52.122;5.420;2022-11-11T01:40:18;102837.88;;;20.62;53.51
71770;BME280;59605;52.122;5.420;2022-11-11T01:42:52;102833.59;;;20.61;53.72
71770;BME280;59605;52.122;5.420;2022-11-11T01:48:18;102844.94;;;20.60;53.27
71770;BME280;59605;52.122;5.420;2022-11-11T01:51:10;102858.84;;;20.60;53.38
71770;BME280;59605;52.122;5.420;2022-11-11T01:53:40;102861.47;;;20.60;53.35
71770;BME280;59605;52.122;5.420;2022-11-11T01:56:07;102871.16;;;20.58;53.78
71770;BME280;59605;52.122;5.420;2022-11-11T01:58:35;102871.97;;;20.58;53.46
71770;BME280;59605;52.122;5.420;2022-11-11T02:01:02;102869.38;;;20.58;53.69
71770;BME280;59605;52.122;5.420;2022-11-11T02:03:31;102864.16;;;20.58;53.47
71770;BME280;59605;52.122;5.420;2022-11-11T02:06:00;102859.88;;;20.57;53.76
71770;BME280;59605;52.122;5.420;2022-11-11T02:08:30;102859.00;;;20.57;53.84
71770;BME280;59605;52.122;5.420;2022-11-11T02:11:03;102861.59;;;20.57;53.76
71770;BME280;59605;52.122;5.420;2022-11-11T02:13:32;102851.16;;;20.57;53.71
71770;BME280;59605;52.122;5.420;2022-11-11T02:16:20;102850.31;;;20.56;53.61
71770;BME280;59605;52.122;5.420;2022-11-11T02:18:47;102852.94;;;20.56;53.74
71770;BME280;59605;52.122;5.420;2022-11-11T02:21:20;102853.00;;;20.55;53.68
71770;BME280;59605;52.122;5.420;2022-11-11T02:24:02;102853.84;;;20.55;53.69
71770;BME280;59605;52.122;5.420;2022-11-11T02:26:32;102845.25;;;20.53;53.84
71770;BME280;59605;52.122;5.420;2022-11-11T02:29:00;102847.78;;;20.55;53.59
71770;BME280;59605;52.122;5.420;2022-11-11T02:31:28;102846.91;;;20.54;53.68
71770;BME280;59605;52.122;5.420;2022-11-11T02:33:55;102856.53;;;20.54;53.77
71770;BME280;59605;52.122;5.420;2022-11-11T02:36:22;102853.09;;;20.53;53.23
71770;BME280;59605;52.122;5.420;2022-11-11T02:38:49;102847.00;;;20.53;53.49
71770;BME280;59605;52.122;5.420;2022-11-11T02:41:16;102848.69;;;20.54;53.52
71770;BME280;59605;52.122;5.420;2022-11-11T02:44:01;102847.84;;;20.53;53.28
71770;BME280;59605;52.122;5.420;2022-11-11T02:46:27;102853.16;;;20.52;53.44
71770;BME280;59605;52.122;5.420;2022-11-11T02:48:54;102849.69;;;20.51;53.50
71770;BME280;59605;52.122;5.420;2022-11-11T02:51:20;102854.91;;;20.51;53.33
71770;BME280;59605;52.122;5.420;2022-11-11T02:53:47;102862.75;;;20.51;53.59
71770;BME280;59605;52.122;5.420;2022-11-11T02:56:13;102856.69;;;20.51;53.61
71770;BME280;59605;52.122;5.420;2022-11-11T02:59:00;102862.75;;;20.51;53.51
71770;BME280;59605;52.122;5.420;2022-11-11T03:01:26;102855.84;;;20.50;53.31
71770;BME280;59605;52.122;5.420;2022-11-11T03:03:53;102858.47;;;20.50;53.61
71770;BME280;59605;52.122;5.420;2022-11-11T03:06:19;102850.63;;;20.50;53.68
71770;BME280;59605;52.122;5.420;2022-11-11T03:08:46;102854.13;;;20.49;53.34
71770;BME280;59605;52.122;5.420;2022-11-11T03:11:12;102857.66;;;20.48;53.41
71770;BME280;59605;52.122;5.420;2022-11-11T03:13:39;102863.75;;;20.49;53.47
71770;BME280;59605;52.122;5.420;2022-11-11T03:16:05;102867.28;;;20.48;53.33
71770;BME280;59605;52.122;5.420;2022-11-11T03:18:52;102874.28;;;20.47;53.31
71770;BME280;59605;52.122;5.420;2022-11-11T03:21:18;102873.41;;;20.47;53.35
71770;BME280;59605;52.122;5.420;2022-11-11T03:24:05;102868.19;;;20.47;53.24
71770;BME280;59605;52.122;5.420;2022-11-11T03:26:31;102874.31;;;20.46;53.26
71770;BME280;59605;52.122;5.420;2022-11-11T03:28:57;102877.78;;;20.46;53.26
71770;BME280;59605;52.122;5.420;2022-11-11T03:31:24;102875.19;;;20.46;53.49
71770;BME280;59605;52.122;5.420;2022-11-11T03:33:50;102890.00;;;20.46;53.57
71770;BME280;59605;52.122;5.420;2022-11-11T03:36:16;102884.84;;;20.44;53.14
71770;BME280;59605;52.122;5.420;2022-11-11T03:38:43;102890.94;;;20.45;53.38
71770;BME280;59605;52.122;5.420;2022-11-11T03:41:09;102895.28;;;20.44;53.52
71770;BME280;59605;52.122;5.420;2022-11-11T03:43:35;102885.78;;;20.43;53.51
71770;BME280;59605;52.122;5.420;2022-11-11T03:46:04;102889.22;;;20.44;53.34
71770;BME280;59605;52.122;5.420;2022-11-11T03:48:32;102897.06;;;20.44;53.25
71770;BME280;59605;52.122;5.420;2022-11-11T03:50:59;102887.53;;;20.43;53.47
71770;BME280;59605;52.122;5.420;2022-11-11T03:53:25;102898.91;;;20.42;53.52
71770;BME280;59605;52.122;5.420;2022-11-11T03:55:52;102899.75;;;20.42;53.60
71770;BME280;59605;52.122;5.420;2022-11-11T03:58:18;102903.25;;;20.41;53.14
71770;BME280;59605;52.122;5.420;2022-11-11T04:00:45;102909.44;;;20.40;53.36
71770;BME280;59605;52.122;5.420;2022-11-11T04:03:13;102912.94;;;20.39;53.36
71770;BME280;59605;52.122;5.420;2022-11-11T04:05:59;102903.25;;;20.41;53.17
71770;BME280;59605;52.122;5.420;2022-11-11T04:08:45;102911.09;;;20.41;53.07
71770;BME280;59605;52.122;5.420;2022-11-11T04:14:04;102909.50;;;20.38;53.49
71770;BME280;59605;52.122;5.420;2022-11-11T04:16:51;102902.50;;;20.39;53.33
71770;BME280;59605;52.122;5.420;2022-11-11T04:19:17;102906.94;;;20.37;53.44
71770;BME280;59605;52.122;5.420;2022-11-11T04:22:02;102901.69;;;20.37;53.42
71770;BME280;59605;52.122;5.420;2022-11-11T04:24:29;102908.63;;;20.38;53.34
71770;BME280;59605;52.122;5.420;2022-11-11T04:27:16;102902.66;;;20.36;53.29
71770;BME280;59605;52.122;5.420;2022-11-11T04:29:43;102893.94;;;20.35;53.23
71770;BME280;59605;52.122;5.420;2022-11-11T04:32:11;102889.59;;;20.36;53.46
71770;BME280;59605;52.122;5.420;2022-11-11T04:35:01;102900.03;;;20.36;53.23
71770;BME280;59605;52.122;5.420;2022-11-11T04:37:32;102893.94;;;20.35;53.52
71770;BME280;59605;52.122;5.420;2022-11-11T04:39:59;102880.97;;;20.34;53.10
71770;BME280;59605;52.122;5.420;2022-11-11T04:42:44;102881.81;;;20.34;53.39
71770;BME280;59605;52.122;5.420;2022-11-11T04:45:12;102887.97;;;20.33;53.25
71770;BME280;59605;52.122;5.420;2022-11-11T04:50:20;102871.44;;;20.33;53.15
71770;BME280;59605;52.122;5.420;2022-11-11T04:52:46;102862.75;;;20.32;53.20
71770;BME280;59605;52.122;5.420;2022-11-11T04:55:13;102875.81;;;20.32;53.03
71770;BME280;59605;52.122;5.420;2022-11-11T04:57:58;102872.34;;;20.32;53.01
71770;BME280;59605;52.122;5.420;2022-11-11T05:00:25;102867.13;;;20.32;53.44
71770;BME280;59605;52.122;5.420;2022-11-11T05:02:57;102871.53;;;20.31;53.14
71770;BME280;59605;52.122;5.420;2022-11-11T05:05:56;102870.66;;;20.31;53.03
71770;BME280;59605;52.122;5.420;2022-11-11T05:08:46;102864.59;;;20.30;53.19
71770;BME280;59605;52.122;5.420;2022-11-11T05:11:27;102859.38;;;20.30;53.29
71770;BME280;59605;52.122;5.420;2022-11-11T05:13:56;102846.38;;;20.29;52.87
71770;BME280;59605;52.122;5.420;2022-11-11T05:16:57;102847.22;;;20.29;53.15
71770;BME280;59605;52.122;5.420;2022-11-11T05:19:42;102845.56;;;20.28;52.98
71770;BME280;59605;52.122;5.420;2022-11-11T05:22:41;102846.38;;;20.29;53.06
71770;BME280;59605;52.122;5.420;2022-11-11T05:25:09;102847.28;;;20.28;53.27
71770;BME280;59605;52.122;5.420;2022-11-11T05:27:52;102849.16;;;20.26;53.02
71770;BME280;59605;52.122;5.420;2022-11-11T05:30:20;102854.28;;;20.27;53.25
71770;BME280;59605;52.122;5.420;2022-11-11T05:32:47;102849.91;;;20.28;53.05
71770;BME280;59605;52.122;5.420;2022-11-11T05:35:14;102846.53;;;20.26;53.21
71770;BME280;59605;52.122;5.420;2022-11-11T05:37:41;102850.81;;;20.27;52.90
71770;BME280;59605;52.122;5.420;2022-11-11T05:40:08;102851.75;;;20.26;53.31
71770;BME280;59605;52.122;5.420;2022-11-11T05:42:35;102861.34;;;20.25;52.89
71770;BME280;59605;52.122;5.420;2022-11-11T05:45:08;102860.50;;;20.25;53.19
71770;BME280;59605;52.122;5.420;2022-11-11T05:47:34;102857.88;;;20.25;53.21
71770;BME280;59605;52.122;5.420;2022-11-11T05:50:01;102855.28;;;20.25;53.05
71770;BME280;59605;52.122;5.420;2022-11-11T05:52:27;102862.28;;;20.24;52.96
71770;BME280;59605;52.122;5.420;2022-11-11T05:54:53;102864.00;;;20.23;52.76
71770;BME280;59605;52.122;5.420;2022-11-11T05:57:20;102863.19;;;20.23;53.20
71770;BME280;59605;52.122;5.420;2022-11-11T05:59:46;102873.63;;;20.23;52.94
71770;BME280;59605;52.122;5.420;2022-11-11T06:02:13;102873.63;;;20.23;52.69
71770;BME280;59605;52.122;5.420;2022-11-11T06:04:40;102876.25;;;20.23;53.12
71770;BME280;59605;52.122;5.420;2022-11-11T06:07:06;102885.84;;;20.22;52.94
71770;BME280;59605;52.122;5.420;2022-11-11T06:09:32;102885.84;;;20.22;53.07
71770;BME280;59605;52.122;5.420;2022-11-11T06:11:59;102881.53;;;20.21;52.92
71770;BME280;59605;52.122;5.420;2022-11-11T06:14:25;102887.59;;;20.22;52.71
71770;BME280;59605;52.122;5.420;2022-11-11T06:16:51;102885.91;;;20.21;52.91
71770;BME280;59605;52.122;5.420;2022-11-11T06:19:18;102896.34;;;20.21;53.03
71770;BME280;59605;52.122;5.420;2022-11-11T06:21:44;102890.28;;;20.20;52.61
71770;BME280;59605;52.122;5.420;2022-11-11T06:24:23;102897.25;;;20.20;52.81
71770;BME280;59605;52.122;5.420;2022-11-11T06:26:53;102895.56;;;20.19;52.73
71770;BME280;59605;52.122;5.420;2022-11-11T06:29:19;102905.16;;;20.18;53.07
71770;BME280;59605;52.122;5.420;2022-11-11T06:31:45;102913.84;;;20.19;52.86
71770;BME280;59605;52.122;5.420;2022-11-11T06:34:12;102918.22;;;20.18;52.80
71770;BME280;59605;52.122;5.420;2022-11-11T06:36:38;102917.34;;;20.18;52.76
71770;BME280;59605;52.122;5.420;2022-11-11T06:39:04;102928.75;;;20.17;52.93
71770;BME280;59605;52.122;5.420;2022-11-11T06:41:31;102937.41;;;20.17;52.51
71770;BME280;59605;52.122;5.420;2022-11-11T06:43:57;102941.78;;;20.17;52.57
71770;BME280;59605;52.122;5.420;2022-11-11T06:46:25;102937.47;;;20.16;52.94
71770;BME280;59605;52.122;5.420;2022-11-11T06:48:51;102937.47;;;20.16;52.83
71770;BME280;59605;52.122;5.420;2022-11-11T06:51:18;102939.25;;;20.15;52.71
71770;BME280;59605;52.122;5.420;2022-11-11T06:53:44;102953.22;;;20.14;52.82
71770;BME280;59605;52.122;5.420;2022-11-11T06:56:11;102952.38;;;20.14;53.02
71770;BME280;59605;52.122;5.420;2022-11-11T06:58:40;102950.66;;;20.13;53.25
71770;BME280;59605;52.122;5.420;2022-11-11T07:01:08;102961.19;;;20.11;53.41
71770;BME280;59605;52.122;5.420;2022-11-11T07:03:35;102959.47;;;20.10;53.74
71770;BME280;59605;52.122;5.420;2022-11-11T07:06:03;102952.56;;;20.09;53.83
71770;BME280;59605;52.122;5.420;2022-11-11T07:08:30;102961.25;;;20.10;54.02
71770;BME280;59605;52.122;5.420;2022-11-11T07:10:56;102960.44;;;20.08;53.83
71770;BME280;59605;52.122;5.420;2022-11-11T07:13:23;102964.06;;;20.05;53.63
71770;BME280;59605;52.122;5.420;2022-11-11T07:15:49;102966.59;;;20.07;54.07
71770;BME280;59605;52.122;5.420;2022-11-11T07:18:16;102968.22;;;20.09;53.56
71770;BME280;59605;52.122;5.420;2022-11-11T07:20:42;102982.97;;;20.10;54.08
71770;BME280;59605;52.122;5.420;2022-11-11T07:23:09;102982.06;;;20.11;53.97
71770;BME280;59605;52.122;5.420;2022-11-11T07:25:35;102986.38;;;20.12;53.64
71770;BME280;59605;52.122;5.420;2022-11-11T07:28:01;102985.44;;;20.13;54.00
71770;BME280;59605;52.122;5.420;2022-11-11T07:30:28;102985.44;;;20.13;53.58
71770;BME280;59605;52.122;5.420;2022-11-11T07:32:54;102985.44;;;20.13;53.69
71770;BME280;59605;52.122;5.420;2022-11-11T07:35:21;102994.97;;;20.14;54.01
71770;BME280;59605;52.122;5.420;2022-11-11T07:37:48;102989.69;;;20.16;53.76
71770;BME280;59605;52.122;5.420;2022-11-11T07:40:17;103000.06;;;20.17;53.73
71770;BME280;59605;52.122;5.420;2022-11-11T07:42:44;103001.72;;;20.20;53.91
71770;BME280;59605;52.122;5.420;2022-11-11T07:45:11;103005.16;;;20.20;53.65
71770;BME280;59605;52.122;5.420;2022-11-11T07:47:42;103004.31;;;20.20;54.21
71770;BME280;59605;52.122;5.420;2022-11-11T07:50:10;103006.03;;;20.21;52.57
71770;BME280;59605;52.122;5.420;2022-11-11T07:52:36;103005.28;;;20.17;53.29
71770;BME280;59605;52.122;5.420;2022-11-11T07:55:04;103009.59;;;20.18;53.81
71770;BME280;59605;52.122;5.420;2022-11-11T07:57:30;103008.63;;;20.21;53.56
71770;BME280;59605;52.122;5.420;2022-11-11T07:59:57;103002.47;;;20.22;53.62
71770;BME280;59605;52.122;5.420;2022-11-11T08:02:23;102999.78;;;20.23;53.87
71770;BME280;59605;52.122;5.420;2022-11-11T08:04:50;103001.50;;;20.25;54.19
71770;BME280;59605;52.122;5.420;2022-11-11T08:07:21;103008.44;;;20.26;54.03
71770;BME280;59605;52.122;5.420;2022-11-11T08:09:49;103006.59;;;20.28;53.93
71770;BME280;59605;52.122;5.420;2022-11-11T08:12:15;103004.88;;;20.27;54.24
71770;BME280;59605;52.122;5.420;2022-11-11T08:15:00;103014.34;;;20.29;54.40
71770;BME280;59605;52.122;5.420;2022-11-11T08:17:35;103016.97;;;20.29;54.10
71770;BME280;59605;52.122;5.420;2022-11-11T08:20:02;103015.22;;;20.30;54.11
71770;BME280;59605;52.122;5.420;2022-11-11T08:22:35;103020.44;;;20.30;54.39
71770;BME280;59605;52.122;5.420;2022-11-11T08:25:01;103015.16;;;20.31;55.32
71770;BME280;59605;52.122;5.420;2022-11-11T08:27:30;103024.66;;;20.32;54.70
71770;BME280;59605;52.122;5.420;2022-11-11T08:29:57;103029.88;;;20.32;54.73
71770;BME280;59605;52.122;5.420;2022-11-11T08:32:23;103023.75;;;20.33;55.07
71770;BME280;59605;52.122;5.420;2022-11-11T08:34:50;103027.22;;;20.34;54.90
71770;BME280;59605;52.122;5.420;2022-11-11T08:37:16;103027.13;;;20.35;54.97
71770;BME280;59605;52.122;5.420;2022-11-11T08:39:42;103027.94;;;20.37;54.77
71770;BME280;59605;52.122;5.420;2022-11-11T08:42:09;103034.00;;;20.38;55.13
71770;BME280;59605;52.122;5.420;2022-11-11T08:44:35;103030.47;;;20.39;55.07
71770;BME280;59605;52.122;5.420;2022-11-11T08:47:01;103022.66;;;20.39;55.10
71770;BME280;59605;52.122;5.420;2022-11-11T08:49:28;103032.13;;;20.42;55.30
71770;BME280;59605;52.122;5.420;2022-11-11T08:51:54;103038.19;;;20.42;55.12
71770;BME280;59605;52.122;5.420;2022-11-11T08:54:20;103036.41;;;20.43;55.19
71770;BME280;59605;52.122;5.420;2022-11-11T08:56:47;103035.56;;;20.42;55.49
71770;BME280;59605;52.122;5.420;2022-11-11T08:59:13;103040.72;;;20.44;55.38
71770;BME280;59605;52.122;5.420;2022-11-11T09:01:39;103043.25;;;20.45;55.51
71770;BME280;59605;52.122;5.420;2022-11-11T09:04:06;103045.03;;;20.45;55.57
71770;BME280;59605;52.122;5.420;2022-11-11T09:06:52;103047.59;;;20.46;55.69
71770;BME280;59605;52.122;5.420;2022-11-11T09:09:19;103042.28;;;20.48;55.50
71770;BME280;59605;52.122;5.420;2022-11-11T09:11:45;103045.75;;;20.48;55.55
71770;BME280;59605;52.122;5.420;2022-11-11T09:14:11;103045.66;;;20.50;55.94
71770;BME280;59605;52.122;5.420;2022-11-11T09:16:38;103052.66;;;20.49;55.94
71770;BME280;59605;52.122;5.420;2022-11-11T09:19:04;103057.00;;;20.50;55.81
71770;BME280;59605;52.122;5.420;2022-11-11T09:21:30;103061.28;;;20.51;56.23
71770;BME280;59605;52.122;5.420;2022-11-11T09:23:57;103056.06;;;20.51;55.64
71770;BME280;59605;52.122;5.420;2022-11-11T09:26:25;103055.22;;;20.51;55.65
71770;BME280;59605;52.122;5.420;2022-11-11T09:28:52;103063.06;;;20.51;55.71
71770;BME280;59605;52.122;5.420;2022-11-11T09:31:18;103056.06;;;20.51;55.95
71770;BME280;59605;52.122;5.420;2022-11-11T09:34:04;103057.81;;;20.51;55.68
71770;BME280;59605;52.122;5.420;2022-11-11T09:36:32;103065.66;;;20.51;56.11
71770;BME280;59605;52.122;5.420;2022-11-11T09:38:59;103071.66;;;20.53;55.75
71770;BME280;59605;52.122;5.420;2022-11-11T09:41:51;103072.59;;;20.52;55.79
71770;BME280;59605;52.122;5.420;2022-11-11T09:50:23;103082.03;;;20.54;56.03
71770;BME280;59605;52.122;5.420;2022-11-11T09:53:03;103085.53;;;20.55;56.22
71770;BME280;59605;52.122;5.420;2022-11-11T09:55:35;103083.75;;;20.55;55.56
71770;BME280;59605;52.122;5.420;2022-11-11T09:58:10;103084.63;;;20.56;55.86
71770;BME280;59605;52.122;5.420;2022-11-11T10:00:41;103085.38;;;20.58;56.16
71770;BME280;59605;52.122;5.420;2022-11-11T10:05:40;103076.72;;;20.57;55.85
71770;BME280;59605;52.122;5.420;2022-11-11T10:10:43;103066.19;;;20.59;56.10
71770;BME280;59605;52.122;5.420;2022-11-11T10:16:08;103073.88;;;20.62;55.83
71770;BME280;59605;52.122;5.420;2022-11-11T10:21:35;103086.81;;;20.65;55.99
71770;BME280;59605;52.122;5.420;2022-11-11T10:24:37;103077.19;;;20.66;56.20
71770;BME280;59605;52.122;5.420;2022-11-11T10:27:20;103085.00;;;20.67;56.47
71770;BME280;59605;52.122;5.420;2022-11-11T10:29:48;103089.31;;;20.68;56.63
71770;BME280;59605;52.122;5.420;2022-11-11T10:32:21;103090.97;;;20.71;56.83
71770;BME280;59605;52.122;5.420;2022-11-11T10:34:50;103089.19;;;20.71;56.64
71770;BME280;59605;52.122;5.420;2022-11-11T10:37:24;103098.66;;;20.74;56.72
71770;BME280;59605;52.122;5.420;2022-11-11T10:40:08;103089.03;;;20.74;56.71
71770;BME280;59605;52.122;5.420;2022-11-11T10:42:35;103095.13;;;20.75;56.66
71770;BME280;59605;52.122;5.420;2022-11-11T10:45:24;103102.84;;;20.78;56.71
71770;BME280;59605;52.122;5.420;2022-11-11T10:48:00;103095.78;;;20.80;56.84
71770;BME280;59605;52.122;5.420;2022-11-11T10:50:32;103100.94;;;20.82;56.85
71770;BME280;59605;52.122;5.420;2022-11-11T10:53:25;103108.78;;;20.82;56.73
71770;BME280;59605;52.122;5.420;2022-11-11T10:58:35;103102.69;;;20.81;56.70
71770;BME280;59605;52.122;5.420;2022-11-11T11:01:05;103104.41;;;20.82;57.09
71770;BME280;59605;52.122;5.420;2022-11-11T11:03:36;103107.78;;;20.84;56.94
71770;BME280;59605;52.122;5.420;2022-11-11T11:06:15;103099.94;;;20.84;57.09
71770;BME280;59605;52.122;5.420;2022-11-11T11:08:47;103091.19;;;20.85;57.12
71770;BME280;59605;52.122;5.420;2022-11-11T11:11:19;103094.59;;;20.87;56.72
71770;BME280;59605;52.122;5.420;2022-11-11T11:13:59;103089.34;;;20.87;57.12
71770;BME280;59605;52.122;5.420;2022-11-11T11:16:31;103090.25;;;20.86;56.79
71770;BME280;59605;52.122;5.420;2022-11-11T11:22:04;103082.50;;;20.85;56.66
71770;BME280;59605;52.122;5.420;2022-11-11T11:24:33;103082.50;;;20.85;56.61
71770;BME280;59605;52.122;5.420;2022-11-11T11:27:08;103080.75;;;20.85;56.69
71770;BME280;59605;52.122;5.420;2022-11-11T11:29:40;103083.28;;;20.87;56.66
71770;BME280;59605;52.122;5.420;2022-11-11T11:32:20;103080.59;;;20.88;56.33
71770;BME280;59605;52.122;5.420;2022-11-11T11:34:52;103075.31;;;20.90;56.56
71770;BME280;59605;52.122;5.420;2022-11-11T11:37:21;103078.75;;;20.90;56.20
71770;BME280;59605;52.122;5.420;2022-11-11T11:42:27;103083.16;;;20.90;56.32
71770;BME280;59605;52.122;5.420;2022-11-11T11:44:54;103077.91;;;20.90;56.14
71770;BME280;59605;52.122;5.420;2022-11-11T11:47:35;103081.38;;;20.90;56.45
71770;BME280;59605;52.122;5.420;2022-11-11T11:50:29;103077.84;;;20.91;56.36
71770;BME280;59605;52.122;5.420;2022-11-11T11:54:00;103065.63;;;20.92;56.62
71770;BME280;59605;52.122;5.420;2022-11-11T11:56:27;103061.25;;;20.92;56.48
71770;BME280;59605;52.122;5.420;2022-11-11T12:15:39;103066.06;;;21.02;56.39
71770;BME280;59605;52.122;5.420;2022-11-11T12:20:49;103066.06;;;21.02;56.66
71770;BME280;59605;52.122;5.420;2022-11-11T12:42:07;103059.03;;;21.02;57.00
71770;BME280;59605;52.122;5.420;2022-11-11T12:44:54;103056.44;;;21.02;56.58
71770;BME280;59605;52.122;5.420;2022-11-11T12:48:04;103055.53;;;21.03;56.90
71770;BME280;59605;52.122;5.420;2022-11-11T12:50:32;103051.13;;;21.04;56.52
71770;BME280;59605;52.122;5.420;2022-11-11T12:53:20;103048.50;;;21.04;56.91
71770;BME280;59605;52.122;5.420;2022-11-11T12:55:59;103058.91;;;21.05;56.73
71770;BME280;59605;52.122;5.420;2022-11-11T13:01:21;103053.75;;;21.04;56.80
71770;BME280;59605;52.122;5.420;2022-11-11T13:12:47;103049.16;;;21.09;56.28
71770;BME280;59605;52.122;5.420;2022-11-11T13:15:21;103050.94;;;21.08;56.66
71770;BME280;59605;52.122;5.420;2022-11-11T13:17:49;103048.31;;;21.08;56.26
71770;BME280;59605;52.122;5.420;2022-11-11T13:20:39;103051.78;;;21.09;56.63
71770;BME280;59605;52.122;5.420;2022-11-11T13:23:09;103056.09;;;21.10;56.25
71770;BME280;59605;52.122;5.420;2022-11-11T13:25:39;103053.56;;;21.08;56.31
71770;BME280;59605;52.122;5.420;2022-11-11T13:28:21;103050.06;;;21.08;56.38
71770;BME280;59605;52.122;5.420;2022-11-11T13:33:27;103048.31;;;21.08;56.03
71770;BME280;59605;52.122;5.420;2022-11-11T13:36:02;103040.47;;;21.08;56.06
71770;BME280;59605;52.122;5.420;2022-11-11T13:38:36;103049.16;;;21.09;56.00
71770;BME280;59605;52.122;5.420;2022-11-11T13:41:06;103050.88;;;21.10;55.93
71770;BME280;59605;52.122;5.420;2022-11-11T13:46:06;103049.94;;;21.11;55.80
71770;BME280;59605;52.122;5.420;2022-11-11T13:48:48;103051.63;;;21.12;55.74
71770;BME280;59605;52.122;5.420;2022-11-11T13:56:52;103048.94;;;21.14;55.56
71770;BME280;59605;52.122;5.420;2022-11-11T13:59:29;103046.47;;;21.10;55.84
71770;BME280;59605;52.122;5.420;2022-11-11T14:02:32;103047.31;;;21.11;55.84
71770;BME280;59605;52.122;5.420;2022-11-11T14:07:47;103047.38;;;21.09;55.93
71770;BME280;59605;52.122;5.420;2022-11-11T14:12:53;103050.00;;;21.09;56.61
71770;BME280;59605;52.122;5.420;2022-11-11T14:20:51;103043.94;;;21.09;56.55
71770;BME280;59605;52.122;5.420;2022-11-11T14:23:37;103045.72;;;21.08;56.41
71770;BME280;59605;52.122;5.420;2022-11-11T14:33:58;103045.00;;;21.05;56.50
71770;BME280;59605;52.122;5.420;2022-11-11T14:41:52;103044.84;;;21.08;56.65
71770;BME280;59605;52.122;5.420;2022-11-11T14:49:48;103041.47;;;21.06;57.15
71770;BME280;59605;52.122;5.420;2022-11-11T14:57:25;103052.75;;;21.06;57.12
71770;BME280;59605;52.122;5.420;2022-11-11T14:59:55;103055.44;;;21.05;56.64
71770;BME280;59605;52.122;5.420;2022-11-11T15:02:28;103057.16;;;21.06;56.78
71770;BME280;59605;52.122;5.420;2022-11-11T15:04:57;103065.00;;;21.06;56.78
71770;BME280;59605;52.122;5.420;2022-11-11T15:07:42;103061.44;;;21.07;56.87
71770;BME280;59605;52.122;5.420;2022-11-11T15:10:21;103052.84;;;21.05;57.21
71770;BME280;59605;52.122;5.420;2022-11-11T15:15:43;103055.53;;;21.03;57.03
71770;BME280;59605;52.122;5.420;2022-11-11T15:21:17;103060.81;;;21.02;57.09
71770;BME280;59605;52.122;5.420;2022-11-11T15:26:34;103060.00;;;21.01;57.17
71770;BME280;59605;52.122;5.420;2022-11-11T15:29:28;103061.72;;;21.01;57.47
71770;BME280;59605;52.122;5.420;2022-11-11T15:32:06;103066.97;;;21.01;57.48
71770;BME280;59605;52.122;5.420;2022-11-11T15:37:24;103077.50;;;20.99;57.03